Oberon — SKJF — position and weather

sailwx.info

Track history (hours):
 
Tides and Currents Weather Stations Pressure Air Temp Water Temp Dewpoint Dewpoint Depression Visibility Wind Speed Wind Dir Waves Ship Positions

Oberon

Last reported at 2017-Aug-11 18:53 UTC. Time now 2017-Aug-22 20:46 UTC.
Position S 38°09' E 144°55'.
Warning: this ship's position is 11 days out of date.

Length 232 m; draft 8.8 m.

Type: Cargo ship. MMSI: 266283000.

Date/timePositionNaut miles runAvg speedWind from/ knotsBaromVisibWave heightAir tempDewpointWater temp
2017-Aug-11 18:53S 38°09' E 144°55'617.1
2017-Aug-11 18:30S 38°02' E 144°55'916.0
2017-Aug-11 17:55S 37°53' E 144°56'3 3.5
2017-Aug-11 17:06S 37°50' E 144°54'0 0.0
2017-Aug-11 16:57S 37°50' E 144°54'0 0.0
2017-Aug-11 16:24S 37°50' E 144°54'0 0.0
2017-Aug-11 15:57S 37°50' E 144°54'0 0.0
2017-Aug-11 13:03S 37°50' E 144°54'0 0.0
2017-Aug-11 12:57S 37°50' E 144°54'0 0.0
2017-Aug-11 12:27S 37°50' E 144°54'0 0.0
2017-Aug-11 11:45S 37°50' E 144°54'0 0.0
2017-Aug-11 11:24S 37°50' E 144°54'0 0.0
2017-Aug-11 10:45S 37°50' E 144°54'0 0.0
2017-Aug-11 09:21S 37°50' E 144°54'0 0.0
2017-Aug-11 08:45S 37°50' E 144°54'0 0.0
2017-Aug-11 08:15S 37°50' E 144°54'0 0.0
2017-Aug-11 06:33S 37°50' E 144°54'0 0.0
2017-Aug-10 23:28S 37°51' E 144°54'2 3.7
2017-Aug-10 22:53S 37°52' E 144°56'512.7
2017-Aug-10 22:29S 37°57' E 144°55'3 6.9
2017-Aug-10 21:59S 38°01' E 144°55'15410.0
2017-Aug-10 06:34S 38°46' E 148°03'115.3
2017-Aug-10 06:29S 38°45' E 148°05'915.9
2017-Aug-10 05:55S 38°42' E 148°16'817.0
2017-Aug-10 05:27S 38°38' E 148°24'817.3
2017-Aug-10 05:00S 38°33' E 148°32'817.1
2017-Aug-10 04:30S 38°28' E 148°41'816.6
2017-Aug-10 04:00S 38°23' E 148°50'816.5
2017-Aug-10 03:30S 38°18' E 148°58'816.8
2017-Aug-10 03:00S 38°13' E 149°06'917.1
2017-Aug-10 02:30S 38°08' E 149°15'816.9
2017-Aug-10 02:00S 38°03' E 149°24'916.8
2017-Aug-10 01:29S 37°58' E 149°32'816.5
2017-Aug-10 01:00S 37°53' E 149°41'816.2
2017-Aug-10 00:30S 37°48' E 149°49'242 7.7
2017-Aug-08 17:17S 33°59' E 151°25'414.3
2017-Aug-08 17:00S 33°56' E 151°28'714.7
2017-Aug-08 16:30S 33°51' E 151°34'714.9
2017-Aug-08 16:00S 33°45' E 151°40'4014.5
2017-Aug-08 13:16S 33°15' E 152°11'414.1
2017-Aug-08 13:00S 33°12' E 152°13'714.1
2017-Aug-08 12:30S 33°06' E 152°18'713.7
2017-Aug-08 12:00S 33°01' E 152°23'714.0
2017-Aug-08 11:30S 32°56' E 152°29'714.2
2017-Aug-08 11:00S 32°50' E 152°34'714.5
2017-Aug-08 10:30S 32°44' E 152°39'815.0
2017-Aug-08 10:00S 32°38' E 152°45'27816.1
2017-Aug-07 16:41S 28°05' E 153°48'319.4
2017-Aug-07 16:30S 28°02' E 153°47'1018.9
2017-Aug-07 16:00S 27°52' E 153°45'918.6
2017-Aug-07 15:30S 27°43' E 153°44'918.9
2017-Aug-07 15:00S 27°34' E 153°43'918.9
2017-Aug-07 14:30S 27°25' E 153°42'1018.9
2017-Aug-07 14:00S 27°15' E 153°40'919.0
2017-Aug-07 13:30S 27°06' E 153°39'917.8
2017-Aug-07 13:00S 26°58' E 153°35'917.9
2017-Aug-07 12:30S 26°51' E 153°28'918.5
2017-Aug-07 12:00S 26°47' E 153°18'816.4
2017-Aug-07 11:30S 26°43' E 153°11'612.7
2017-Aug-07 11:00S 26°49' E 153°10'816.4
2017-Aug-07 10:30S 26°57' E 153°13'816.1
2017-Aug-07 10:00S 27°03' E 153°18'815.9
2017-Aug-07 09:30S 27°11' E 153°21'816.3
2017-Aug-07 09:00S 27°17' E 153°15'710.4
2017-Aug-07 08:20S 27°23' E 153°10'0 0.0
2017-Aug-07 07:59S 27°23' E 153°10'0 0.0
2017-Aug-07 07:29S 27°23' E 153°10'0 0.0
2017-Aug-07 06:59S 27°23' E 153°10'0 0.0
2017-Aug-07 06:29S 27°23' E 153°10'0 0.0
2017-Aug-07 05:59S 27°23' E 153°10'0 0.0
2017-Aug-07 05:29S 27°23' E 153°10'0 0.0
2017-Aug-07 04:59S 27°23' E 153°10'0 0.0
2017-Aug-07 04:29S 27°23' E 153°10'0 0.0
2017-Aug-07 03:59S 27°23' E 153°10'0 0.0
2017-Aug-07 03:29S 27°23' E 153°10'0 0.0
2017-Aug-07 02:59S 27°23' E 153°10'0 0.0
2017-Aug-07 02:29S 27°23' E 153°10'0 0.0
2017-Aug-07 01:59S 27°23' E 153°10'0 0.0
2017-Aug-07 01:29S 27°23' E 153°10'0 0.0
2017-Aug-07 00:59S 27°23' E 153°10'0 0.0
2017-Aug-07 00:29S 27°23' E 153°10'0 0.0
2017-Aug-06 23:59S 27°23' E 153°10'0 0.0
2017-Aug-06 23:29S 27°23' E 153°10'0 0.0
2017-Aug-06 22:59S 27°23' E 153°10'0 0.0
2017-Aug-06 22:29S 27°23' E 153°10'0 0.0
2017-Aug-06 21:59S 27°23' E 153°10'0 0.0
2017-Aug-06 21:29S 27°23' E 153°10'0 0.0
2017-Aug-06 20:59S 27°23' E 153°10'0 0.0
2017-Aug-06 20:29S 27°23' E 153°10'0 0.0
2017-Aug-06 19:59S 27°23' E 153°10'0 0.1
2017-Aug-06 19:30S 27°23' E 153°10'2 3.4
2017-Aug-06 19:00S 27°21' E 153°11'611.7
2017-Aug-06 18:30S 27°17' E 153°15'715.0
2017-Aug-06 18:00S 27°11' E 153°21'816.1
2017-Aug-06 17:30S 27°03' E 153°18'815.5
2017-Aug-06 17:00S 26°57' E 153°13'815.7
2017-Aug-06 16:31S 26°50' E 153°09'713.0
2017-Aug-06 16:00S 26°44' E 153°12'713.5
2017-Aug-06 15:29S 26°46' E 153°19'3516.3
2017-Aug-06 13:18S 27°00' E 153°56'  
2017-Aug-03 14:58S 36°09' E 174°57'1111.8
2017-Aug-03 14:00S 36°20' E 174°57'510.1
2017-Aug-03 13:30S 36°25' E 174°58'5 9.8
2017-Aug-03 13:00S 36°30' E 174°58'5 9.7
2017-Aug-03 12:30S 36°35' E 174°58'5 9.4
2017-Aug-03 12:00S 36°39' E 174°56'5 9.9
2017-Aug-03 11:30S 36°43' E 174°52'510.2
2017-Aug-03 11:00S 36°47' E 174°48'4 7.0
2017-Aug-03 10:30S 36°50' E 174°46'0 0.1
2017-Aug-03 09:57S 36°50' E 174°46'0 0.0
2017-Aug-03 09:27S 36°50' E 174°46'0 0.0
2017-Aug-03 08:57S 36°50' E 174°46'0 0.0
2017-Aug-03 08:27S 36°50' E 174°46'0 0.0
2017-Aug-03 07:57S 36°50' E 174°46'0 0.0
2017-Aug-03 07:27S 36°50' E 174°46'0 0.0
2017-Aug-03 06:57S 36°50' E 174°46'0 0.0
2017-Aug-03 06:27S 36°50' E 174°46'0 0.0
2017-Aug-03 05:57S 36°50' E 174°46'0 0.0
2017-Aug-03 05:27S 36°50' E 174°46'0 0.0
2017-Aug-03 04:57S 36°50' E 174°46'0 0.0
2017-Aug-03 04:27S 36°50' E 174°46'0 0.0
2017-Aug-03 03:57S 36°50' E 174°46'0 0.0
2017-Aug-03 03:27S 36°50' E 174°46'0 0.0
2017-Aug-03 02:57S 36°50' E 174°46'0 0.0
2017-Aug-03 02:27S 36°50' E 174°46'0 0.0
2017-Aug-03 01:57S 36°50' E 174°46'0 0.0
2017-Aug-03 01:27S 36°50' E 174°46'0 0.0
2017-Aug-03 00:57S 36°50' E 174°46'0 0.0
2017-Aug-03 00:27S 36°50' E 174°46'0 0.0
2017-Aug-02 23:57S 36°50' E 174°46'0 0.0
2017-Aug-02 23:27S 36°50' E 174°46'0 0.0
2017-Aug-02 22:57S 36°50' E 174°46'0 0.0
2017-Aug-02 22:27S 36°50' E 174°46'0 0.0
2017-Aug-02 21:57S 36°50' E 174°46'0 0.0
2017-Aug-02 21:27S 36°50' E 174°46'0 0.0
2017-Aug-02 20:57S 36°50' E 174°46'0 0.0
2017-Aug-02 20:27S 36°50' E 174°46'0 0.0
2017-Aug-02 19:57S 36°50' E 174°46'0 0.0
2017-Aug-02 19:27S 36°50' E 174°46'0 0.0
2017-Aug-02 18:57S 36°50' E 174°46'0 0.0
2017-Aug-02 18:28S 36°50' E 174°46'0 0.4
2017-Aug-02 18:01S 36°50' E 174°46'3 5.6
2017-Aug-02 17:30S 36°50' E 174°50'611.5
2017-Aug-02 17:00S 36°44' E 174°51'714.9
2017-Aug-02 16:30S 36°38' E 174°56'815.9
2017-Aug-02 16:00S 36°31' E 175°02'815.2
2017-Aug-02 15:30S 36°27' E 175°10'815.3
2017-Aug-02 15:00S 36°24' E 175°18'  
Track history (hours):
 
Tides and Currents Weather Stations Pressure Air Temp Water Temp Dewpoint Dewpoint Depression Visibility Wind Speed Wind Dir Waves Ship Positions

Oberon

Last reported at 2017-Aug-11 18:53 UTC. Time now 2017-Aug-22 20:46 UTC.
Position S 38°09' E 144°55'.
Warning: this ship's position is 11 days out of date.

Length 232 m; draft 8.8 m.

Type: Cargo ship. MMSI: 266283000.

Date/timePositionNaut miles runAvg speedWind from/ knotsBaromVisibWave heightAir tempDewpointWater temp
2017-Aug-11 18:53S 38°09' E 144°55'617.1
2017-Aug-11 18:30S 38°02' E 144°55'916.0
2017-Aug-11 17:55S 37°53' E 144°56'3 3.5
2017-Aug-11 17:06S 37°50' E 144°54'0 0.0
2017-Aug-11 16:57S 37°50' E 144°54'0 0.0
2017-Aug-11 16:24S 37°50' E 144°54'0 0.0
2017-Aug-11 15:57S 37°50' E 144°54'0 0.0
2017-Aug-11 13:03S 37°50' E 144°54'0 0.0
2017-Aug-11 12:57S 37°50' E 144°54'0 0.0
2017-Aug-11 12:27S 37°50' E 144°54'0 0.0
2017-Aug-11 11:45S 37°50' E 144°54'0 0.0
2017-Aug-11 11:24S 37°50' E 144°54'0 0.0
2017-Aug-11 10:45S 37°50' E 144°54'0 0.0
2017-Aug-11 09:21S 37°50' E 144°54'0 0.0
2017-Aug-11 08:45S 37°50' E 144°54'0 0.0
2017-Aug-11 08:15S 37°50' E 144°54'0 0.0
2017-Aug-11 06:33S 37°50' E 144°54'0 0.0
2017-Aug-10 23:28S 37°51' E 144°54'2 3.7
2017-Aug-10 22:53S 37°52' E 144°56'512.7
2017-Aug-10 22:29S 37°57' E 144°55'3 6.9
2017-Aug-10 21:59S 38°01' E 144°55'15410.0
2017-Aug-10 06:34S 38°46' E 148°03'115.3
2017-Aug-10 06:29S 38°45' E 148°05'915.9
2017-Aug-10 05:55S 38°42' E 148°16'817.0
2017-Aug-10 05:27S 38°38' E 148°24'817.3
2017-Aug-10 05:00S 38°33' E 148°32'817.1
2017-Aug-10 04:30S 38°28' E 148°41'816.6
2017-Aug-10 04:00S 38°23' E 148°50'816.5
2017-Aug-10 03:30S 38°18' E 148°58'816.8
2017-Aug-10 03:00S 38°13' E 149°06'917.1
2017-Aug-10 02:30S 38°08' E 149°15'816.9
2017-Aug-10 02:00S 38°03' E 149°24'916.8
2017-Aug-10 01:29S 37°58' E 149°32'816.5
2017-Aug-10 01:00S 37°53' E 149°41'816.2
2017-Aug-10 00:30S 37°48' E 149°49'242 7.7
2017-Aug-08 17:17S 33°59' E 151°25'414.3
2017-Aug-08 17:00S 33°56' E 151°28'714.7
2017-Aug-08 16:30S 33°51' E 151°34'714.9
2017-Aug-08 16:00S 33°45' E 151°40'4014.5
2017-Aug-08 13:16S 33°15' E 152°11'414.1
2017-Aug-08 13:00S 33°12' E 152°13'714.1
2017-Aug-08 12:30S 33°06' E 152°18'713.7
2017-Aug-08 12:00S 33°01' E 152°23'714.0
2017-Aug-08 11:30S 32°56' E 152°29'714.2
2017-Aug-08 11:00S 32°50' E 152°34'714.5
2017-Aug-08 10:30S 32°44' E 152°39'815.0
2017-Aug-08 10:00S 32°38' E 152°45'27816.1
2017-Aug-07 16:41S 28°05' E 153°48'319.4
2017-Aug-07 16:30S 28°02' E 153°47'1018.9
2017-Aug-07 16:00S 27°52' E 153°45'918.6
2017-Aug-07 15:30S 27°43' E 153°44'918.9
2017-Aug-07 15:00S 27°34' E 153°43'918.9
2017-Aug-07 14:30S 27°25' E 153°42'1018.9
2017-Aug-07 14:00S 27°15' E 153°40'919.0
2017-Aug-07 13:30S 27°06' E 153°39'917.8
2017-Aug-07 13:00S 26°58' E 153°35'917.9
2017-Aug-07 12:30S 26°51' E 153°28'918.5
2017-Aug-07 12:00S 26°47' E 153°18'816.4
2017-Aug-07 11:30S 26°43' E 153°11'612.7
2017-Aug-07 11:00S 26°49' E 153°10'816.4
2017-Aug-07 10:30S 26°57' E 153°13'816.1
2017-Aug-07 10:00S 27°03' E 153°18'815.9
2017-Aug-07 09:30S 27°11' E 153°21'816.3
2017-Aug-07 09:00S 27°17' E 153°15'710.4
2017-Aug-07 08:20S 27°23' E 153°10'0 0.0
2017-Aug-07 07:59S 27°23' E 153°10'0 0.0
2017-Aug-07 07:29S 27°23' E 153°10'0 0.0
2017-Aug-07 06:59S 27°23' E 153°10'0 0.0
2017-Aug-07 06:29S 27°23' E 153°10'0 0.0
2017-Aug-07 05:59S 27°23' E 153°10'0 0.0
2017-Aug-07 05:29S 27°23' E 153°10'0 0.0
2017-Aug-07 04:59S 27°23' E 153°10'0 0.0
2017-Aug-07 04:29S 27°23' E 153°10'0 0.0
2017-Aug-07 03:59S 27°23' E 153°10'0 0.0
2017-Aug-07 03:29S 27°23' E 153°10'0 0.0
2017-Aug-07 02:59S 27°23' E 153°10'0 0.0
2017-Aug-07 02:29S 27°23' E 153°10'0 0.0
2017-Aug-07 01:59S 27°23' E 153°10'0 0.0
2017-Aug-07 01:29S 27°23' E 153°10'0 0.0
2017-Aug-07 00:59S 27°23' E 153°10'0 0.0
2017-Aug-07 00:29S 27°23' E 153°10'0 0.0
2017-Aug-06 23:59S 27°23' E 153°10'0 0.0
2017-Aug-06 23:29S 27°23' E 153°10'0 0.0
2017-Aug-06 22:59S 27°23' E 153°10'0 0.0
2017-Aug-06 22:29S 27°23' E 153°10'0 0.0
2017-Aug-06 21:59S 27°23' E 153°10'0 0.0
2017-Aug-06 21:29S 27°23' E 153°10'0 0.0
2017-Aug-06 20:59S 27°23' E 153°10'0 0.0
2017-Aug-06 20:29S 27°23' E 153°10'0 0.0
2017-Aug-06 19:59S 27°23' E 153°10'0 0.1
2017-Aug-06 19:30S 27°23' E 153°10'2 3.4
2017-Aug-06 19:00S 27°21' E 153°11'611.7
2017-Aug-06 18:30S 27°17' E 153°15'715.0
2017-Aug-06 18:00S 27°11' E 153°21'816.1
2017-Aug-06 17:30S 27°03' E 153°18'815.5
2017-Aug-06 17:00S 26°57' E 153°13'815.7
2017-Aug-06 16:31S 26°50' E 153°09'713.0
2017-Aug-06 16:00S 26°44' E 153°12'713.5
2017-Aug-06 15:29S 26°46' E 153°19'3516.3
2017-Aug-06 13:18S 27°00' E 153°56'  
2017-Aug-03 14:58S 36°09' E 174°57'1111.8
2017-Aug-03 14:00S 36°20' E 174°57'510.1
2017-Aug-03 13:30S 36°25' E 174°58'5 9.8
2017-Aug-03 13:00S 36°30' E 174°58'5 9.7
2017-Aug-03 12:30S 36°35' E 174°58'5 9.4
2017-Aug-03 12:00S 36°39' E 174°56'5 9.9
2017-Aug-03 11:30S 36°43' E 174°52'510.2
2017-Aug-03 11:00S 36°47' E 174°48'4 7.0
2017-Aug-03 10:30S 36°50' E 174°46'0 0.1
2017-Aug-03 09:57S 36°50' E 174°46'0 0.0
2017-Aug-03 09:27S 36°50' E 174°46'0 0.0
2017-Aug-03 08:57S 36°50' E 174°46'0 0.0
2017-Aug-03 08:27S 36°50' E 174°46'0 0.0
2017-Aug-03 07:57S 36°50' E 174°46'0 0.0
2017-Aug-03 07:27S 36°50' E 174°46'0 0.0
2017-Aug-03 06:57S 36°50' E 174°46'0 0.0
2017-Aug-03 06:27S 36°50' E 174°46'0 0.0
2017-Aug-03 05:57S 36°50' E 174°46'0 0.0
2017-Aug-03 05:27S 36°50' E 174°46'0 0.0
2017-Aug-03 04:57S 36°50' E 174°46'0 0.0
2017-Aug-03 04:27S 36°50' E 174°46'0 0.0
2017-Aug-03 03:57S 36°50' E 174°46'0 0.0
2017-Aug-03 03:27S 36°50' E 174°46'0 0.0
2017-Aug-03 02:57S 36°50' E 174°46'0 0.0
2017-Aug-03 02:27S 36°50' E 174°46'0 0.0
2017-Aug-03 01:57S 36°50' E 174°46'0 0.0
2017-Aug-03 01:27S 36°50' E 174°46'0 0.0
2017-Aug-03 00:57S 36°50' E 174°46'0 0.0
2017-Aug-03 00:27S 36°50' E 174°46'0 0.0
2017-Aug-02 23:57S 36°50' E 174°46'0 0.0
2017-Aug-02 23:27S 36°50' E 174°46'0 0.0
2017-Aug-02 22:57S 36°50' E 174°46'0 0.0
2017-Aug-02 22:27S 36°50' E 174°46'0 0.0
2017-Aug-02 21:57S 36°50' E 174°46'0 0.0
2017-Aug-02 21:27S 36°50' E 174°46'0 0.0
2017-Aug-02 20:57S 36°50' E 174°46'0 0.0
2017-Aug-02 20:27S 36°50' E 174°46'0 0.0
2017-Aug-02 19:57S 36°50' E 174°46'0 0.0
2017-Aug-02 19:27S 36°50' E 174°46'0 0.0
2017-Aug-02 18:57S 36°50' E 174°46'0 0.0
2017-Aug-02 18:28S 36°50' E 174°46'0 0.4
2017-Aug-02 18:01S 36°50' E 174°46'3 5.6
2017-Aug-02 17:30S 36°50' E 174°50'611.5
2017-Aug-02 17:00S 36°44' E 174°51'714.9
2017-Aug-02 16:30S 36°38' E 174°56'815.9
2017-Aug-02 16:00S 36°31' E 175°02'815.2
2017-Aug-02 15:30S 36°27' E 175°10'815.3
2017-Aug-02 15:00S 36°24' E 175°18'  

Dump ship's entire track history